createdAt,value
2018-03-03T00:00:38.030Z,20.9
2018-03-03T00:01:27.772Z,20.9
2018-03-03T00:02:17.157Z,20.9
2018-03-03T00:03:07.813Z,20.9
2018-03-03T00:03:56.898Z,20.9
2018-03-03T00:04:48.611Z,20.8
2018-03-03T00:05:38.993Z,20.9
2018-03-03T00:06:27.515Z,20.8
2018-03-03T00:07:17.899Z,20.8
2018-03-03T00:08:08.398Z,20.8
2018-03-03T00:08:58.045Z,20.8
2018-03-03T00:09:47.675Z,20.8
2018-03-03T00:10:37.688Z,20.8
2018-03-03T00:11:28.207Z,20.8
2018-03-03T00:12:18.235Z,20.8
2018-03-03T00:13:07.840Z,20.8
2018-03-03T00:13:58.164Z,20.8
2018-03-03T00:14:48.512Z,20.8
2018-03-03T00:15:39.142Z,20.8
2018-03-03T00:16:28.169Z,20.8
2018-03-03T00:17:18.661Z,20.8
2018-03-03T00:18:09.494Z,20.8
2018-03-03T00:18:58.341Z,20.8
2018-03-03T00:19:48.379Z,20.8
2018-03-03T00:20:38.883Z,20.8
2018-03-03T00:21:27.976Z,20.8
2018-03-03T00:22:18.455Z,20.8
2018-03-03T00:23:07.689Z,20.8
2018-03-03T00:23:59.963Z,20.8
2018-03-03T00:24:48.533Z,20.8
2018-03-03T00:25:39.894Z,20.8
2018-03-03T00:26:28.381Z,20.8
2018-03-03T00:27:19.423Z,20.8
2018-03-03T00:28:09.504Z,20.8
2018-03-03T00:28:58.634Z,20.7
2018-03-03T00:29:48.931Z,20.8
2018-03-03T00:30:38.830Z,20.7
2018-03-03T00:31:28.772Z,20.7
2018-03-03T00:32:18.889Z,20.8
2018-03-03T00:33:08.658Z,20.7
2018-03-03T00:33:59.816Z,20.7
2018-03-03T00:34:49.383Z,20.7
2018-03-03T00:35:39.160Z,20.7
2018-03-03T00:36:29.988Z,20.7
2018-03-03T00:37:20.592Z,20.7
2018-03-03T00:38:09.195Z,20.7
2018-03-03T00:39:00.441Z,20.7
2018-03-03T00:39:49.140Z,20.7
2018-03-03T00:40:39.205Z,20.6
2018-03-03T00:41:30.051Z,20.7
2018-03-03T00:42:20.203Z,20.7
2018-03-03T00:43:09.049Z,20.7
2018-03-03T00:44:00.121Z,20.6
2018-03-03T00:44:50.847Z,20.6
2018-03-03T00:45:41.136Z,20.7
2018-03-03T00:46:30.534Z,20.6
2018-03-03T00:47:21.271Z,20.6
2018-03-03T00:48:12.419Z,20.6
2018-03-03T00:49:00.486Z,20.6
2018-03-03T00:49:51.254Z,20.6
2018-03-03T00:50:41.379Z,20.6
2018-03-03T00:51:30.340Z,20.6
2018-03-03T00:52:20.569Z,20.6
2018-03-03T00:53:10.901Z,20.6
2018-03-03T00:54:01.033Z,20.6
2018-03-03T00:54:50.709Z,20.6
2018-03-03T00:55:41.176Z,20.6
2018-03-03T00:56:31.603Z,20.6
2018-03-03T00:57:20.620Z,20.6
2018-03-03T00:58:12.092Z,20.6
2018-03-03T00:59:01.339Z,20.6
2018-03-03T00:59:51.591Z,20.6
2018-03-03T01:00:41.683Z,20.6
2018-03-03T01:01:31.636Z,20.6
2018-03-03T01:02:21.929Z,20.6
2018-03-03T01:03:12.212Z,20.6
2018-03-03T01:04:01.830Z,20.6
2018-03-03T01:04:51.788Z,20.6
2018-03-03T01:05:43.109Z,20.5
2018-03-03T01:06:32.544Z,20.6
2018-03-03T01:07:22.491Z,20.6
2018-03-03T01:08:12.186Z,20.5
2018-03-03T01:09:02.154Z,20.5
2018-03-03T01:09:53.081Z,20.5
2018-03-03T01:10:42.824Z,20.5
2018-03-03T01:11:33.397Z,20.5
2018-03-03T01:12:23.106Z,20.5
2018-03-03T01:13:12.046Z,20.5
2018-03-03T01:14:02.501Z,20.5
2018-03-03T01:14:53.118Z,20.5
2018-03-03T01:15:42.685Z,20.5
2018-03-03T01:16:32.968Z,20.5
2018-03-03T01:17:23.021Z,20.5
2018-03-03T01:18:12.298Z,20.4
2018-03-03T01:19:03.052Z,20.5
2018-03-03T01:19:53.281Z,20.5
2018-03-03T01:20:43.685Z,20.4
2018-03-03T01:21:33.543Z,20.4
2018-03-03T01:22:22.436Z,20.5
2018-03-03T01:23:12.320Z,20.4
2018-03-03T01:24:02.610Z,20.4
2018-03-03T01:24:51.958Z,20.4
2018-03-03T01:25:43.075Z,20.4
2018-03-03T01:26:33.389Z,20.4
2018-03-03T01:27:23.594Z,20.4
2018-03-03T01:28:13.181Z,20.4
2018-03-03T01:29:03.993Z,20.4
2018-03-03T01:29:53.470Z,20.4
2018-03-03T01:30:44.158Z,20.4
2018-03-03T01:31:34.132Z,20.4
2018-03-03T01:32:23.234Z,20.4
2018-03-03T01:33:13.216Z,20.4
2018-03-03T01:34:03.752Z,20.4
2018-03-03T01:34:54.676Z,20.4
2018-03-03T01:35:43.457Z,20.4
2018-03-03T01:36:34.944Z,20.4
2018-03-03T01:37:23.344Z,20.4
2018-03-03T01:38:12.942Z,20.4
2018-03-03T01:39:04.685Z,20.4
2018-03-03T01:39:55.114Z,20.4
2018-03-03T01:40:43.717Z,20.4
2018-03-03T01:41:34.849Z,20.4
2018-03-03T01:42:24.992Z,20.4
2018-03-03T01:43:13.758Z,20.4
2018-03-03T01:44:03.960Z,20.4
2018-03-03T01:44:54.170Z,20.4
2018-03-03T01:45:45.004Z,20.4
2018-03-03T01:46:35.205Z,20.4
2018-03-03T01:47:25.302Z,20.4
2018-03-03T01:48:15.417Z,20.4
2018-03-03T01:49:04.971Z,20.4
2018-03-03T01:49:55.371Z,20.3
2018-03-03T01:50:45.452Z,20.3
2018-03-03T01:51:34.928Z,20.3
2018-03-03T01:52:25.371Z,20.3
2018-03-03T01:53:15.148Z,20.3
2018-03-03T01:54:05.056Z,20.3
2018-03-03T01:54:55.967Z,20.3
2018-03-03T01:55:45.468Z,20.3
2018-03-03T01:56:35.141Z,20.3
2018-03-03T01:57:25.013Z,20.3
2018-03-03T01:58:15.625Z,20.3
2018-03-03T01:59:05.796Z,20.3
2018-03-03T01:59:55.586Z,20.3
2018-03-03T02:00:46.189Z,20.3
2018-03-03T02:01:36.744Z,20.3
2018-03-03T02:02:25.545Z,20.3
2018-03-03T02:03:15.011Z,20.3
2018-03-03T02:04:06.271Z,20.3
2018-03-03T02:04:56.517Z,20.3
2018-03-03T02:05:46.592Z,20.3
2018-03-03T02:06:35.992Z,20.3
2018-03-03T02:07:26.586Z,20.3
2018-03-03T02:08:16.428Z,20.3
2018-03-03T02:09:06.150Z,20.3
2018-03-03T02:09:55.962Z,20.3
2018-03-03T02:10:46.795Z,20.3
2018-03-03T02:11:36.348Z,20.3
2018-03-03T02:12:26.909Z,20.3
2018-03-03T02:13:15.595Z,20.3
2018-03-03T02:14:06.956Z,20.3
2018-03-03T02:14:57.778Z,20.3
2018-03-03T02:15:46.682Z,20.3
2018-03-03T02:16:37.477Z,20.3
2018-03-03T02:17:27.060Z,20.3
2018-03-03T02:18:16.565Z,20.3
2018-03-03T02:19:07.477Z,20.3
2018-03-03T02:19:56.163Z,20.3
2018-03-03T02:20:47.523Z,20.3
2018-03-03T02:21:37.887Z,20.3
2018-03-03T02:22:26.639Z,20.3
2018-03-03T02:23:16.823Z,20.3
2018-03-03T02:24:06.962Z,20.3
2018-03-03T02:24:57.008Z,20.2
2018-03-03T02:25:47.413Z,20.3
2018-03-03T02:26:37.466Z,20.3
2018-03-03T02:27:27.906Z,20.2
2018-03-03T02:28:18.511Z,20.2
2018-03-03T02:29:07.530Z,20.2
2018-03-03T02:29:57.714Z,20.2
2018-03-03T02:30:47.647Z,20.2
2018-03-03T02:31:37.533Z,20.2
2018-03-03T02:32:27.702Z,20.2
2018-03-03T02:33:18.202Z,20.2
2018-03-03T02:34:09.289Z,20.2
2018-03-03T02:34:59.284Z,20.2
2018-03-03T02:35:49.577Z,20.2
2018-03-03T02:36:39.093Z,20.2
2018-03-03T02:37:29.209Z,20.2
2018-03-03T02:38:19.229Z,20.2
2018-03-03T02:39:09.548Z,20.2
2018-03-03T02:39:59.299Z,20.2
2018-03-03T02:40:49.096Z,20.1
2018-03-03T02:41:39.520Z,20.1
2018-03-03T02:42:29.789Z,20.1
2018-03-03T02:43:19.541Z,20.1
2018-03-03T02:44:09.848Z,20.2
2018-03-03T02:45:00.207Z,20.1
2018-03-03T02:45:50.196Z,20.1
2018-03-03T02:46:39.489Z,20.1
2018-03-03T02:47:29.832Z,20.1
2018-03-03T02:48:19.975Z,20.1
2018-03-03T02:49:09.715Z,20.1
2018-03-03T02:49:59.767Z,20.1
2018-03-03T02:50:48.540Z,20.1
2018-03-03T02:51:39.541Z,20.1
2018-03-03T02:52:29.984Z,20.1
2018-03-03T02:53:18.553Z,20.1
2018-03-03T02:54:09.559Z,20.1
2018-03-03T02:54:58.897Z,20.1
2018-03-03T02:55:49.955Z,20.1
2018-03-03T02:56:39.704Z,20.1
2018-03-03T02:57:29.103Z,20.1
2018-03-03T02:58:19.478Z,20.1
2018-03-03T02:59:08.697Z,20.1
2018-03-03T02:59:58.751Z,20.1
2018-03-03T03:00:49.528Z,20.1
2018-03-03T03:01:40.032Z,20.1
2018-03-03T03:02:28.727Z,20.1
2018-03-03T03:03:19.487Z,20.1
2018-03-03T03:04:09.656Z,20.1
2018-03-03T03:05:00.909Z,20.1
2018-03-03T03:05:49.814Z,20.1
2018-03-03T03:06:40.108Z,20.1
2018-03-03T03:07:30.760Z,20.1
2018-03-03T03:08:20.821Z,20.1
2018-03-03T03:09:10.494Z,20.1
2018-03-03T03:09:59.525Z,20.1
2018-03-03T03:10:49.785Z,20.1
2018-03-03T03:11:40.212Z,20.1
2018-03-03T03:12:30.550Z,20.1
2018-03-03T03:13:19.959Z,20.1
2018-03-03T03:14:10.083Z,20.1
2018-03-03T03:15:00.585Z,20.1
2018-03-03T03:15:50.776Z,20.1
2018-03-03T03:16:39.739Z,20.1
2018-03-03T03:17:31.392Z,20
2018-03-03T03:18:21.062Z,20.1
2018-03-03T03:19:10.542Z,20
2018-03-03T03:20:02.220Z,20
2018-03-03T03:20:51.124Z,20.1
2018-03-03T03:21:41.310Z,20.1
2018-03-03T03:22:32.011Z,20
2018-03-03T03:23:21.375Z,20.1
2018-03-03T03:24:11.269Z,20
2018-03-03T03:25:01.547Z,20
2018-03-03T03:25:51.355Z,20
2018-03-03T03:26:41.579Z,20
2018-03-03T03:27:30.281Z,20
2018-03-03T03:28:21.666Z,20
2018-03-03T03:29:12.179Z,20
2018-03-03T03:30:01.282Z,20
2018-03-03T03:30:51.812Z,20
2018-03-03T03:31:42.280Z,20
2018-03-03T03:32:31.376Z,20
2018-03-03T03:33:21.306Z,20
2018-03-03T03:34:11.073Z,20
2018-03-03T03:35:02.172Z,20
2018-03-03T03:35:52.661Z,20
2018-03-03T03:36:41.123Z,20
2018-03-03T03:37:31.468Z,19.9
2018-03-03T03:38:21.979Z,20
2018-03-03T03:39:11.706Z,20
2018-03-03T03:40:01.814Z,20
2018-03-03T03:40:51.478Z,19.9
2018-03-03T03:41:43.484Z,19.9
2018-03-03T03:42:32.877Z,19.9
2018-03-03T03:43:21.848Z,19.9
2018-03-03T03:44:13.003Z,19.9
2018-03-03T03:45:03.102Z,19.9
2018-03-03T03:45:53.503Z,19.9
2018-03-03T03:46:42.198Z,19.9
2018-03-03T03:47:33.657Z,19.9
2018-03-03T03:48:23.655Z,19.9
2018-03-03T03:49:12.960Z,19.9
2018-03-03T03:50:03.171Z,19.9
2018-03-03T03:50:52.759Z,19.9
2018-03-03T03:51:42.914Z,19.9
2018-03-03T03:52:32.768Z,19.9
2018-03-03T03:53:22.667Z,19.9
2018-03-03T03:54:13.304Z,19.9
2018-03-03T03:55:03.260Z,19.9
2018-03-03T03:55:53.187Z,19.9
2018-03-03T03:56:43.889Z,19.9
2018-03-03T03:57:34.452Z,19.9
2018-03-03T03:58:24.852Z,19.9
2018-03-03T03:59:14.891Z,19.9
2018-03-03T04:00:04.385Z,19.9
2018-03-03T04:00:54.189Z,19.9
2018-03-03T04:01:45.348Z,19.9
2018-03-03T04:02:35.114Z,19.9
2018-03-03T04:03:24.289Z,19.9
2018-03-03T04:04:14.619Z,19.9
2018-03-03T04:05:05.054Z,19.9
2018-03-03T04:05:55.366Z,19.9
2018-03-03T04:06:44.550Z,19.9
2018-03-03T04:07:34.371Z,19.9
2018-03-03T04:08:24.797Z,19.9
2018-03-03T04:09:14.689Z,19.9
2018-03-03T04:10:04.072Z,19.9
2018-03-03T04:10:54.986Z,19.9
2018-03-03T04:11:45.206Z,19.9
2018-03-03T04:12:34.304Z,19.9
2018-03-03T04:13:24.037Z,19.9
2018-03-03T04:14:14.131Z,19.9
2018-03-03T04:15:04.405Z,19.9
2018-03-03T04:15:54.328Z,19.9
2018-03-03T04:16:44.409Z,19.9
2018-03-03T04:17:35.103Z,19.9
2018-03-03T04:18:24.996Z,19.9
2018-03-03T04:19:14.293Z,19.9
2018-03-03T04:20:03.946Z,19.9
2018-03-03T04:20:55.089Z,19.9
2018-03-03T04:21:44.836Z,19.9
2018-03-03T04:22:35.453Z,19.9
2018-03-03T04:23:25.710Z,19.9
2018-03-03T04:24:16.088Z,19.8
2018-03-03T04:25:05.723Z,19.8
2018-03-03T04:25:55.747Z,19.9
2018-03-03T04:26:45.810Z,19.9
2018-03-03T04:27:35.921Z,19.8
2018-03-03T04:28:24.693Z,19.8
2018-03-03T04:29:16.129Z,19.8
2018-03-03T04:30:05.601Z,19.8
2018-03-03T04:30:56.293Z,19.8
2018-03-03T04:31:46.280Z,19.8
2018-03-03T04:32:36.141Z,19.8
2018-03-03T04:33:26.711Z,19.8
2018-03-03T04:34:15.050Z,19.8
2018-03-03T04:35:07.280Z,19.8
2018-03-03T04:35:56.172Z,19.8
2018-03-03T04:36:46.243Z,19.8
2018-03-03T04:37:36.185Z,19.8
2018-03-03T04:38:25.665Z,19.8
2018-03-03T04:39:15.462Z,19.8
2018-03-03T04:40:06.283Z,19.8
2018-03-03T04:40:55.881Z,19.8
2018-03-03T04:41:46.720Z,19.8
2018-03-03T04:42:36.529Z,19.8
2018-03-03T04:43:26.946Z,19.8
2018-03-03T04:44:16.821Z,19.8
2018-03-03T04:45:07.490Z,19.8
2018-03-03T04:45:56.987Z,19.8
2018-03-03T04:46:46.962Z,19.8
2018-03-03T04:47:36.929Z,19.8
2018-03-03T04:48:27.220Z,19.8
2018-03-03T04:49:18.553Z,19.8
2018-03-03T04:50:07.166Z,19.8
2018-03-03T04:50:57.176Z,19.8
2018-03-03T04:51:47.644Z,19.8
2018-03-03T04:52:37.958Z,19.8
2018-03-03T04:53:28.848Z,19.8
2018-03-03T04:54:18.355Z,19.8
2018-03-03T04:55:08.375Z,19.8
2018-03-03T04:55:58.733Z,19.8
2018-03-03T04:56:47.606Z,19.8
2018-03-03T04:57:38.593Z,19.8
2018-03-03T04:58:27.605Z,19.8
2018-03-03T04:59:17.762Z,19.8
2018-03-03T05:00:07.226Z,19.8
2018-03-03T05:00:58.195Z,19.8
2018-03-03T05:01:47.627Z,19.8
2018-03-03T05:02:37.926Z,19.8
2018-03-03T05:03:27.451Z,19.8
2018-03-03T05:04:17.576Z,19.8
2018-03-03T05:05:08.357Z,19.8
2018-03-03T05:05:57.395Z,19.8
2018-03-03T05:06:48.731Z,19.8
2018-03-03T05:07:38.457Z,19.8
2018-03-03T05:08:28.326Z,19.8
2018-03-03T05:09:17.748Z,19.8
2018-03-03T05:10:08.852Z,19.8
2018-03-03T05:10:58.661Z,19.8
2018-03-03T05:11:47.989Z,19.8
2018-03-03T05:12:38.919Z,19.8
2018-03-03T05:13:28.936Z,19.8
2018-03-03T05:14:19.194Z,19.8
2018-03-03T05:15:08.244Z,19.7
2018-03-03T05:15:58.939Z,19.8
2018-03-03T05:16:48.079Z,19.7
2018-03-03T05:17:39.682Z,19.7
2018-03-03T05:18:28.337Z,19.7
2018-03-03T05:19:19.313Z,19.8
2018-03-03T05:20:09.736Z,19.8
2018-03-03T05:20:58.912Z,19.7
2018-03-03T05:21:48.560Z,19.7
2018-03-03T05:22:39.406Z,19.7
2018-03-03T05:23:30.108Z,19.7
2018-03-03T05:24:18.996Z,19.7
2018-03-03T05:25:09.659Z,19.7
2018-03-03T05:25:59.166Z,19.7
2018-03-03T05:26:49.676Z,19.7
2018-03-03T05:27:39.675Z,19.7
2018-03-03T05:28:30.723Z,19.7
2018-03-03T05:29:18.509Z,19.7
2018-03-03T05:30:10.269Z,19.7
2018-03-03T05:31:00.704Z,19.7
2018-03-03T05:31:50.291Z,19.7
2018-03-03T05:32:40.086Z,19.7
2018-03-03T05:33:30.728Z,19.7
2018-03-03T05:34:19.742Z,19.7
2018-03-03T05:35:10.472Z,19.7
2018-03-03T05:35:59.363Z,19.7
2018-03-03T05:36:50.193Z,19.7
2018-03-03T05:37:40.623Z,19.7
2018-03-03T05:38:30.655Z,19.7
2018-03-03T05:39:19.475Z,19.7
2018-03-03T05:40:10.696Z,19.7
2018-03-03T05:41:00.064Z,19.7
2018-03-03T05:41:51.624Z,19.7
2018-03-03T05:42:41.299Z,19.7
2018-03-03T05:43:30.440Z,19.7
2018-03-03T05:44:20.010Z,19.7
2018-03-03T05:45:11.117Z,19.7
2018-03-03T05:46:01.007Z,19.7
2018-03-03T05:46:51.630Z,19.7
2018-03-03T05:47:41.709Z,19.7
2018-03-03T05:48:31.738Z,19.7
2018-03-03T05:49:21.132Z,19.7
2018-03-03T05:50:11.288Z,19.6
2018-03-03T05:51:01.144Z,19.6
2018-03-03T05:51:50.924Z,19.7
2018-03-03T05:52:41.314Z,19.6
2018-03-03T05:53:31.037Z,19.6
2018-03-03T05:54:21.652Z,19.7
2018-03-03T05:55:12.162Z,19.6
2018-03-03T05:56:01.205Z,19.7
2018-03-03T05:56:51.235Z,19.7
2018-03-03T05:57:42.033Z,19.6
2018-03-03T05:58:31.240Z,19.7
2018-03-03T05:59:22.062Z,19.6
2018-03-03T06:00:12.017Z,19.6
2018-03-03T06:01:01.735Z,19.6
2018-03-03T06:01:52.510Z,19.6
2018-03-03T06:02:43.249Z,19.6
2018-03-03T06:03:32.508Z,19.6
2018-03-03T06:04:23.149Z,19.6
2018-03-03T06:05:13.169Z,19.6
2018-03-03T06:06:03.472Z,19.6
2018-03-03T06:06:53.531Z,19.6
2018-03-03T06:07:43.588Z,19.7
2018-03-03T06:08:32.785Z,19.6
2018-03-03T06:09:23.666Z,19.6
2018-03-03T06:10:13.451Z,19.6
2018-03-03T06:11:03.543Z,19.6
2018-03-03T06:11:53.624Z,19.6
2018-03-03T06:12:43.903Z,19.6
2018-03-03T06:14:13.760Z,19.6
2018-03-03T06:14:26.965Z,19.6
2018-03-03T06:15:17.902Z,19.6
2018-03-03T06:16:08.481Z,19.6
2018-03-03T06:16:58.269Z,19.6
2018-03-03T06:17:48.585Z,19.6
2018-03-03T06:18:37.841Z,19.6
2018-03-03T06:19:28.714Z,19.6
2018-03-03T06:20:18.513Z,19.6
2018-03-03T06:21:08.917Z,19.6
2018-03-03T06:21:58.072Z,19.6
2018-03-03T06:22:48.373Z,19.6
2018-03-03T06:23:38.686Z,19.6
2018-03-03T06:24:27.647Z,19.7
2018-03-03T06:25:18.350Z,19.6
2018-03-03T06:26:08.896Z,19.7
2018-03-03T06:26:58.661Z,19.7
2018-03-03T06:27:49.018Z,19.7
2018-03-03T06:28:39.117Z,19.7
2018-03-03T06:29:28.562Z,19.7
2018-03-03T06:30:18.879Z,19.7
2018-03-03T06:31:09.006Z,19.7
2018-03-03T06:31:59.278Z,19.7
2018-03-03T06:32:49.424Z,19.7
2018-03-03T06:33:39.426Z,19.7
2018-03-03T06:34:29.211Z,19.7
2018-03-03T06:35:19.499Z,19.7
2018-03-03T06:36:09.844Z,19.7
2018-03-03T06:36:59.321Z,19.7
2018-03-03T06:37:48.827Z,19.7
2018-03-03T06:38:39.709Z,19.7
2018-03-03T06:39:29.524Z,19.7
2018-03-03T06:40:19.558Z,19.7
2018-03-03T06:41:09.888Z,19.7
2018-03-03T06:41:59.960Z,19.7
2018-03-03T06:42:50.268Z,19.7
2018-03-03T06:43:39.808Z,19.7
2018-03-03T06:44:30.394Z,19.7
2018-03-03T06:45:20.441Z,19.7
2018-03-03T06:46:10.358Z,19.7
2018-03-03T06:47:00.032Z,19.7
2018-03-03T06:47:50.166Z,19.7
2018-03-03T06:48:40.707Z,19.7
2018-03-03T06:49:30.233Z,19.7
2018-03-03T06:50:20.544Z,19.7
2018-03-03T06:51:10.296Z,19.7
2018-03-03T06:52:00.677Z,19.7
2018-03-03T06:52:50.374Z,19.7
2018-03-03T06:53:40.700Z,19.7
2018-03-03T06:54:30.801Z,19.7
2018-03-03T06:55:21.122Z,19.8
2018-03-03T06:56:11.178Z,19.8
2018-03-03T06:57:00.972Z,19.8
2018-03-03T06:57:51.001Z,19.8
2018-03-03T06:58:41.371Z,19.8
2018-03-03T06:59:30.887Z,19.8
2018-03-03T07:00:21.150Z,19.8
2018-03-03T07:01:10.049Z,19.8
2018-03-03T07:02:00.045Z,19.8
2018-03-03T07:02:49.254Z,19.8
2018-03-03T07:03:40.152Z,19.8
2018-03-03T07:04:30.405Z,19.8
2018-03-03T07:05:20.434Z,19.8
2018-03-03T07:06:09.345Z,19.8
2018-03-03T07:07:00.111Z,19.8
2018-03-03T07:07:50.870Z,19.8
2018-03-03T07:08:40.792Z,19.8
2018-03-03T07:09:30.262Z,19.8
2018-03-03T07:10:21.368Z,19.8
2018-03-03T07:11:10.111Z,19.8
2018-03-03T07:12:01.304Z,19.8
2018-03-03T07:12:51.804Z,19.8
2018-03-03T07:13:41.047Z,19.8
2018-03-03T07:14:31.905Z,19.8
2018-03-03T07:15:21.396Z,19.8
2018-03-03T07:16:11.325Z,19.8
2018-03-03T07:17:00.816Z,19.8
2018-03-03T07:17:51.361Z,19.8
2018-03-03T07:18:41.169Z,19.8
2018-03-03T07:19:31.661Z,19.8
2018-03-03T07:20:20.994Z,19.8
2018-03-03T07:21:11.574Z,19.8
2018-03-03T07:22:00.961Z,19.8
2018-03-03T07:22:50.884Z,19.8
2018-03-03T07:23:41.394Z,19.8
2018-03-03T07:24:31.111Z,19.8
2018-03-03T07:25:21.549Z,19.8
2018-03-03T07:26:11.529Z,19.8
2018-03-03T07:27:01.981Z,19.8
2018-03-03T07:27:52.168Z,19.8
2018-03-03T07:28:41.213Z,19.8
2018-03-03T07:29:30.992Z,19.8
2018-03-03T07:30:22.790Z,19.8
2018-03-03T07:31:12.587Z,19.8
2018-03-03T07:32:01.588Z,19.8
2018-03-03T07:32:52.075Z,19.8
2018-03-03T07:33:42.403Z,19.8
2018-03-03T07:34:31.912Z,19.8
2018-03-03T07:35:22.341Z,19.8
2018-03-03T07:36:11.415Z,19.8
2018-03-03T07:37:02.533Z,19.8
2018-03-03T07:37:51.804Z,19.8
2018-03-03T07:38:42.461Z,19.8
2018-03-03T07:39:32.262Z,19.8
2018-03-03T07:40:22.931Z,19.8
2018-03-03T07:41:12.050Z,19.8
2018-03-03T07:42:02.610Z,19.8
2018-03-03T07:42:53.375Z,19.8
2018-03-03T07:43:42.589Z,19.8
2018-03-03T07:44:33.055Z,19.8
2018-03-03T07:45:22.797Z,19.9
2018-03-03T07:46:12.556Z,19.9
2018-03-03T07:47:01.573Z,19.9
2018-03-03T07:47:52.718Z,19.9
2018-03-03T07:48:42.146Z,19.9
2018-03-03T07:49:33.944Z,19.9
2018-03-03T07:50:23.823Z,19.9
2018-03-03T07:51:13.281Z,19.9
2018-03-03T07:52:03.095Z,19.9
2018-03-03T07:52:53.222Z,19.9
2018-03-03T07:53:43.449Z,19.9
2018-03-03T07:54:33.969Z,19.9
2018-03-03T07:55:24.086Z,19.9
2018-03-03T07:56:13.950Z,19.9
2018-03-03T07:57:04.287Z,19.9
2018-03-03T07:57:53.946Z,19.9
2018-03-03T07:58:44.008Z,19.9
2018-03-03T07:59:33.637Z,19.9
2018-03-03T08:00:23.648Z,19.9
2018-03-03T08:01:14.770Z,19.9
2018-03-03T08:02:04.611Z,19.9
2018-03-03T08:02:53.891Z,19.9
2018-03-03T08:03:44.470Z,19.9
2018-03-03T08:04:33.830Z,19.9
2018-03-03T08:05:25.872Z,20
2018-03-03T08:06:14.495Z,20
2018-03-03T08:07:04.321Z,20
2018-03-03T08:07:54.636Z,20
2018-03-03T08:08:45.638Z,20
2018-03-03T08:09:34.630Z,20
2018-03-03T08:10:25.323Z,20
2018-03-03T08:11:14.735Z,20
2018-03-03T08:12:05.185Z,20
2018-03-03T08:12:56.340Z,20.1
2018-03-03T08:13:45.282Z,20
2018-03-03T08:14:35.918Z,20.1
2018-03-03T08:15:24.610Z,20.1
2018-03-03T08:16:15.558Z,20.1
2018-03-03T08:17:05.224Z,20.1
2018-03-03T08:17:55.048Z,20.1
2018-03-03T08:18:44.790Z,20.1
2018-03-03T08:19:35.688Z,20.1
2018-03-03T08:20:25.799Z,20.1
2018-03-03T08:21:15.183Z,20.1
2018-03-03T08:22:05.747Z,20.1
2018-03-03T08:22:54.927Z,20.1
2018-03-03T08:23:46.082Z,20.1
2018-03-03T08:24:35.570Z,20.1
2018-03-03T08:25:26.143Z,20.1
2018-03-03T08:26:16.432Z,20.1
2018-03-03T08:27:04.426Z,20.1
2018-03-03T08:27:56.238Z,20.1
2018-03-03T08:28:46.221Z,20.1
2018-03-03T08:29:36.418Z,20.1
2018-03-03T08:30:26.092Z,20.1
2018-03-03T08:31:16.542Z,20.1
2018-03-03T08:32:06.569Z,20.1
2018-03-03T08:32:56.134Z,20.1
2018-03-03T08:33:46.144Z,20.1
2018-03-03T08:34:37.275Z,20.1
2018-03-03T08:35:25.853Z,20.1
2018-03-03T08:36:16.904Z,20.1
2018-03-03T08:37:07.064Z,20.1
2018-03-03T08:37:57.119Z,20.1
2018-03-03T08:38:47.005Z,20.1
2018-03-03T08:39:36.921Z,20.1
2018-03-03T08:40:27.141Z,20.1
2018-03-03T08:41:18.267Z,20.1
2018-03-03T08:42:07.720Z,20.1
2018-03-03T08:42:58.398Z,20.1
2018-03-03T08:43:48.408Z,20.1
2018-03-03T08:44:37.594Z,20.1
2018-03-03T08:45:28.001Z,20
2018-03-03T08:46:17.992Z,20
2018-03-03T08:47:08.326Z,20
2018-03-03T08:47:58.141Z,20
2018-03-03T08:48:48.481Z,20
2018-03-03T08:49:37.423Z,20
2018-03-03T08:50:26.586Z,20
2018-03-03T08:51:17.143Z,20
2018-03-03T08:52:07.219Z,20
2018-03-03T08:52:57.755Z,20
2018-03-03T08:53:47.308Z,20
2018-03-03T08:54:37.263Z,19.9
2018-03-03T08:55:28.199Z,20
2018-03-03T08:56:17.773Z,20
2018-03-03T08:57:07.246Z,20
2018-03-03T08:57:57.568Z,20
2018-03-03T08:58:48.256Z,20
2018-03-03T08:59:37.906Z,20
2018-03-03T09:00:28.732Z,20.1
2018-03-03T09:01:18.448Z,20.1
2018-03-03T09:02:07.602Z,20.1
2018-03-03T09:02:58.312Z,20.1
2018-03-03T09:03:47.690Z,20.1
2018-03-03T09:04:38.229Z,20.1
2018-03-03T09:05:28.293Z,20.1
2018-03-03T09:06:19.894Z,20.1
2018-03-03T09:07:08.690Z,20.1
2018-03-03T09:07:58.595Z,20.1
2018-03-03T09:08:47.920Z,20.1
2018-03-03T09:09:38.675Z,20.1
2018-03-03T09:10:28.887Z,20.1
2018-03-03T09:11:18.895Z,20.2
2018-03-03T09:12:08.329Z,20.2
2018-03-03T09:12:59.590Z,20.2
2018-03-03T09:13:48.292Z,20.2
2018-03-03T09:14:38.489Z,20.2
2018-03-03T09:15:30.125Z,20.2
2018-03-03T09:16:19.608Z,20.2
2018-03-03T09:17:08.665Z,20.2
2018-03-03T09:17:58.683Z,20.2
2018-03-03T09:18:49.284Z,20.2
2018-03-03T09:19:39.484Z,20.2
2018-03-03T09:20:29.825Z,20.3
2018-03-03T09:21:19.392Z,20.3
2018-03-03T09:22:09.196Z,20.3
2018-03-03T09:23:00.329Z,20.3
2018-03-03T09:23:49.935Z,20.3
2018-03-03T09:24:41.016Z,20.3
2018-03-03T09:25:29.197Z,20.3
2018-03-03T09:26:18.893Z,20.3
2018-03-03T09:27:09.737Z,20.3
2018-03-03T09:27:59.797Z,20.3
2018-03-03T09:28:49.711Z,20.3
2018-03-03T09:29:40.322Z,20.3
2018-03-03T09:30:31.184Z,20.3
2018-03-03T09:31:19.846Z,20.3
2018-03-03T09:32:10.719Z,20.3
2018-03-03T09:32:59.245Z,20.3
2018-03-03T09:33:50.280Z,20.3
2018-03-03T09:34:40.906Z,20.3
2018-03-03T09:35:30.301Z,20.3
2018-03-03T09:36:20.793Z,20.3
2018-03-03T09:37:10.525Z,20.3
2018-03-03T09:38:01.038Z,20.3
2018-03-03T09:38:50.136Z,20.3
2018-03-03T09:39:40.800Z,20.3
2018-03-03T09:40:31.758Z,20.3
2018-03-03T09:41:21.233Z,20.3
2018-03-03T09:42:10.778Z,20.3
2018-03-03T09:43:00.931Z,20.3
2018-03-03T09:43:51.123Z,20.4
2018-03-03T09:44:41.061Z,20.4
2018-03-03T09:45:31.232Z,20.4
2018-03-03T09:46:21.548Z,20.4
2018-03-03T09:47:11.050Z,20.4
2018-03-03T09:48:00.968Z,20.4
2018-03-03T09:48:51.152Z,20.4
2018-03-03T09:49:40.972Z,20.4
2018-03-03T09:50:30.748Z,20.4
2018-03-03T09:51:22.180Z,20.4
2018-03-03T09:52:11.434Z,20.4
2018-03-03T09:53:01.150Z,20.4
2018-03-03T09:53:52.107Z,20.4
2018-03-03T09:54:41.601Z,20.4
2018-03-03T09:55:32.415Z,20.4
2018-03-03T09:56:21.736Z,20.4
2018-03-03T09:57:12.140Z,20.4
2018-03-03T09:58:02.826Z,20.4
2018-03-03T09:58:52.997Z,20.4
2018-03-03T09:59:42.968Z,20.4
2018-03-03T10:00:32.052Z,20.4
2018-03-03T10:01:22.624Z,20.4
2018-03-03T10:02:12.824Z,20.4
2018-03-03T10:03:02.163Z,20.4
2018-03-03T10:03:51.985Z,20.4
2018-03-03T10:04:42.609Z,20.4
2018-03-03T10:05:32.472Z,20.4
2018-03-03T10:06:23.036Z,20.4
2018-03-03T10:07:12.416Z,20.4
2018-03-03T10:08:03.169Z,20.4
2018-03-03T10:08:51.976Z,20.4
2018-03-03T10:09:43.381Z,20.4
2018-03-03T10:10:33.049Z,20.4
2018-03-03T10:11:23.374Z,20.4
2018-03-03T10:12:12.946Z,20.4
2018-03-03T10:13:03.655Z,20.4
2018-03-03T10:13:52.587Z,20.4
2018-03-03T10:14:43.133Z,20.4
2018-03-03T10:15:33.760Z,20.4
2018-03-03T10:16:22.836Z,20.4
2018-03-03T10:17:13.566Z,20.4
2018-03-03T10:18:02.365Z,20.4
2018-03-03T10:18:52.924Z,20.4
2018-03-03T10:19:43.953Z,20.4
2018-03-03T10:20:33.346Z,20.4
2018-03-03T10:21:23.886Z,20.4
2018-03-03T10:22:13.544Z,20.4
2018-03-03T10:23:03.424Z,20.4
2018-03-03T10:23:53.348Z,20.4
2018-03-03T10:24:44.489Z,20.4
2018-03-03T10:25:33.602Z,20.4
2018-03-03T10:26:25.841Z,20.4
2018-03-03T10:27:14.592Z,20.4
2018-03-03T10:28:04.301Z,20.4
2018-03-03T10:28:53.701Z,20.4
2018-03-03T10:29:44.116Z,20.4
2018-03-03T10:30:35.324Z,20.4
2018-03-03T10:31:24.385Z,20.4
2018-03-03T10:32:14.343Z,20.4
2018-03-03T10:33:05.983Z,20.4
2018-03-03T10:33:54.458Z,20.4
2018-03-03T10:34:44.117Z,20.3
2018-03-03T10:35:34.790Z,20.3
2018-03-03T10:36:25.090Z,20.4
2018-03-03T10:37:15.195Z,20.4
2018-03-03T10:38:04.765Z,20.4
2018-03-03T10:38:54.697Z,20.3
2018-03-03T10:39:44.592Z,20.3
2018-03-03T10:40:34.150Z,20.3
2018-03-03T10:41:24.323Z,20.3
2018-03-03T10:42:14.630Z,20.3
2018-03-03T10:43:05.670Z,20.3
2018-03-03T10:43:55.344Z,20.4
2018-03-03T10:44:45.210Z,20.4
2018-03-03T10:45:34.993Z,20.4
2018-03-03T10:46:25.644Z,20.4
2018-03-03T10:47:15.979Z,20.4
2018-03-03T10:48:05.196Z,20.4
2018-03-03T10:48:55.428Z,20.4
2018-03-03T10:49:47.052Z,20.4
2018-03-03T10:50:35.706Z,20.4
2018-03-03T10:51:25.299Z,20.4
2018-03-03T10:52:15.240Z,20.4
2018-03-03T10:53:06.898Z,20.4
2018-03-03T10:53:56.993Z,20.4
2018-03-03T10:54:45.876Z,20.4
2018-03-03T10:55:37.012Z,20.4
2018-03-03T10:56:27.057Z,20.4
2018-03-03T10:57:15.994Z,20.4
2018-03-03T10:58:06.113Z,20.4
2018-03-03T10:58:55.506Z,20.5
2018-03-03T10:59:46.527Z,20.5
2018-03-03T11:00:35.482Z,20.5
2018-03-03T11:01:26.429Z,20.5
2018-03-03T11:02:14.552Z,20.4
2018-03-03T11:03:07.159Z,20.5
2018-03-03T11:03:57.403Z,20.5
2018-03-03T11:04:46.316Z,20.5
2018-03-03T11:05:36.201Z,20.5
2018-03-03T11:06:27.616Z,20.5
2018-03-03T11:07:16.886Z,20.5
2018-03-03T11:08:08.084Z,20.5
2018-03-03T11:08:55.950Z,20.5